FDST

Siteki Airport

Siteki, Swaziland
METAR FDST 211300Z AUTO 31005KT //// // ////// 20/10 Q1028
Observed Flight Rules
Jul-21 @ 13:00 UTC (51 minutes ago)
Wind
310° at 5 knots
Temperatures Readings
Current 20°C / 68°F
Dewpoint 10°C / 50°F
Humidity 53%
Altimeter 30.35" Hg
Pressure 1028 hPa
Elevation 667
METAR FDST 211300Z AUTO 31005KT //// // ////// 20/10 Q1028
Observed Flight Rules
Jul-21 @ 13:00 UTC
(51 minutes ago)
Wind
310° at 5 knots
Temperature Dewpoint
20°C / 68°F 10°C / 50°F
Humidity Altimeter Pressure
53% 30.35" Hg 1028 hPa